createdAt,value
2023-05-02T00:00:54.663Z,27.85
2023-05-02T00:03:21.402Z,28.67
2023-05-02T00:05:48.135Z,28.23
2023-05-02T00:08:16.189Z,28.27
2023-05-02T00:10:42.840Z,27.05
2023-05-02T00:13:10.508Z,27.27
2023-05-02T00:15:37.082Z,27.92
2023-05-02T00:18:03.760Z,29.25
2023-05-02T00:20:33.240Z,29.65
2023-05-02T00:23:03.197Z,29.17
2023-05-02T00:25:29.809Z,29.65
2023-05-02T00:27:56.415Z,28.27
2023-05-02T00:30:23.094Z,29.88
2023-05-02T00:32:49.959Z,31.08
2023-05-02T00:35:16.635Z,31.38
2023-05-02T00:37:43.300Z,32.88
2023-05-02T00:40:10.442Z,33.13
2023-05-02T00:42:37.659Z,32.97
2023-05-02T00:45:06.498Z,34.75
2023-05-02T00:47:34.171Z,34.30
2023-05-02T00:50:01.778Z,35.92
2023-05-02T00:52:29.209Z,38.75
2023-05-02T00:54:56.382Z,37.35
2023-05-02T00:57:23.226Z,38.03
2023-05-02T00:59:50.910Z,39.95
2023-05-02T01:02:35.108Z,38.33
2023-05-02T01:05:23.518Z,37.88
2023-05-02T01:08:19.115Z,39.53
2023-05-02T01:10:56.969Z,39.92
2023-05-02T01:13:32.651Z,40.67
2023-05-02T01:16:01.274Z,42.83
2023-05-02T01:18:32.535Z,42.03
2023-05-02T01:21:06.215Z,42.08
2023-05-02T01:24:15.042Z,43.42
2023-05-02T01:27:02.428Z,52.05
2023-05-02T01:29:31.280Z,49.15
2023-05-02T01:32:00.657Z,51.47
2023-05-02T01:34:28.524Z,52.78
2023-05-02T01:36:59.890Z,56.17
2023-05-02T01:39:27.219Z,55.83
2023-05-02T01:41:58.031Z,52.58
2023-05-02T01:44:26.784Z,53.08
2023-05-02T01:46:55.838Z,54.00
2023-05-02T01:49:24.365Z,56.63
2023-05-02T01:51:52.354Z,53.38
2023-05-02T01:54:21.619Z,54.97
2023-05-02T01:56:49.119Z,55.33
2023-05-02T01:59:20.167Z,57.72
2023-05-02T02:01:49.987Z,57.80
2023-05-02T02:04:19.129Z,56.90
2023-05-02T02:06:54.362Z,59.10
2023-05-02T02:09:21.630Z,51.88
2023-05-02T02:12:05.955Z,55.40
2023-05-02T02:14:37.069Z,54.30
2023-05-02T02:17:12.218Z,60.67
2023-05-02T02:19:41.387Z,56.85
2023-05-02T02:22:09.076Z,59.25
2023-05-02T02:24:38.939Z,61.67
2023-05-02T02:27:09.090Z,59.13
2023-05-02T02:29:36.008Z,63.72
2023-05-02T02:32:02.703Z,57.47
2023-05-02T02:34:29.328Z,64.85
2023-05-02T02:37:12.956Z,62.22
2023-05-02T02:40:07.004Z,64.63
2023-05-02T02:42:44.573Z,59.67
2023-05-02T02:45:33.889Z,65.90
2023-05-02T02:48:08.218Z,71.28
2023-05-02T02:50:59.658Z,64.00
2023-05-02T02:53:34.072Z,71.05
2023-05-02T02:56:13.775Z,73.88
2023-05-02T02:58:49.897Z,75.82
2023-05-02T03:01:20.569Z,83.47
2023-05-02T03:03:49.263Z,81.68
2023-05-02T03:06:17.672Z,88.75
2023-05-02T03:08:45.161Z,93.15
2023-05-02T03:11:17.028Z,89.05
2023-05-02T03:13:43.738Z,99.65
2023-05-02T03:16:39.878Z,98.63
2023-05-02T03:19:10.575Z,100.43
2023-05-02T03:21:37.825Z,101.70
2023-05-02T03:24:11.546Z,100.18
2023-05-02T03:26:38.711Z,106.28
2023-05-02T03:29:08.717Z,98.25
2023-05-02T03:31:39.334Z,111.53
2023-05-02T03:34:06.155Z,100.68
2023-05-02T03:36:33.513Z,99.40
2023-05-02T03:39:00.182Z,98.13
2023-05-02T03:41:26.961Z,104.57
2023-05-02T03:44:01.198Z,104.67
2023-05-02T03:46:28.785Z,89.50
2023-05-02T03:48:57.935Z,92.45
2023-05-02T03:51:24.630Z,91.45
2023-05-02T03:53:54.685Z,87.05
2023-05-02T03:56:21.424Z,86.13
2023-05-02T03:58:57.936Z,95.13
2023-05-02T04:01:26.324Z,92.72
2023-05-02T04:03:54.322Z,89.93
2023-05-02T04:06:23.724Z,85.15
2023-05-02T04:08:59.308Z,82.25
2023-05-02T04:11:30.475Z,89.28
2023-05-02T04:13:57.100Z,86.32
2023-05-02T04:16:23.979Z,88.30
2023-05-02T04:18:50.779Z,83.53
2023-05-02T04:21:17.886Z,85.53
2023-05-02T04:23:46.064Z,91.25
2023-05-02T04:26:12.682Z,85.28
2023-05-02T04:28:46.136Z,85.72
2023-05-02T04:31:15.456Z,91.00
2023-05-02T04:33:43.805Z,87.32
2023-05-02T04:36:11.621Z,82.65
2023-05-02T04:38:42.083Z,86.95
2023-05-02T04:41:09.924Z,78.45
2023-05-02T04:43:42.524Z,81.40
2023-05-02T04:46:09.845Z,75.97
2023-05-02T04:48:42.033Z,78.97
2023-05-02T04:51:10.156Z,77.10
2023-05-02T04:53:37.886Z,80.10
2023-05-02T04:56:04.864Z,84.82
2023-05-02T04:58:35.322Z,79.93
2023-05-02T05:01:05.217Z,83.55
2023-05-02T05:03:33.208Z,88.07
2023-05-02T05:06:00.282Z,89.53
2023-05-02T05:08:27.886Z,93.05
2023-05-02T05:10:54.662Z,96.65
2023-05-02T05:13:22.621Z,93.32
2023-05-02T05:15:50.314Z,100.80
2023-05-02T05:18:18.632Z,93.53
2023-05-02T05:20:45.687Z,92.35
2023-05-02T05:23:12.784Z,107.28
2023-05-02T05:25:40.309Z,112.07
2023-05-02T05:28:08.145Z,98.03
2023-05-02T05:30:36.972Z,99.22
2023-05-02T05:33:07.096Z,99.72
2023-05-02T05:35:33.828Z,112.90
2023-05-02T05:38:01.967Z,115.63
2023-05-02T05:40:31.404Z,110.70
2023-05-02T05:42:58.972Z,115.13
2023-05-02T05:45:33.104Z,117.03
2023-05-02T05:47:59.833Z,119.78
2023-05-02T05:50:29.913Z,113.50
2023-05-02T05:52:56.566Z,110.07
2023-05-02T05:55:23.403Z,118.90
2023-05-02T05:57:50.132Z,116.60
2023-05-02T06:00:17.245Z,111.03
2023-05-02T06:02:47.093Z,121.38
2023-05-02T06:05:21.785Z,101.20
2023-05-02T06:07:48.590Z,96.13
2023-05-02T06:10:15.303Z,71.20
2023-05-02T06:12:43.185Z,82.35
2023-05-02T06:15:11.966Z,82.32
2023-05-02T06:17:39.723Z,102.55
2023-05-02T06:20:07.141Z,96.10
2023-05-02T06:22:33.812Z,110.43
2023-05-02T06:25:00.842Z,98.35
2023-05-02T06:27:27.763Z,93.07
2023-05-02T06:29:54.511Z,85.38
2023-05-02T06:32:21.612Z,78.07
2023-05-02T06:34:48.243Z,88.05
2023-05-02T06:37:14.854Z,82.13
2023-05-02T06:39:41.523Z,85.63
2023-05-02T06:42:08.161Z,85.82
2023-05-02T06:44:35.546Z,82.10
2023-05-02T06:47:04.254Z,65.25
2023-05-02T06:49:30.890Z,61.95
2023-05-02T06:51:57.476Z,48.72
2023-05-02T06:54:24.167Z,41.65
2023-05-02T06:56:50.864Z,35.22
2023-05-02T06:59:17.682Z,22.33
2023-05-02T07:01:44.997Z,16.58
2023-05-02T07:04:11.635Z,16.67
2023-05-02T07:06:40.165Z,16.73
2023-05-02T07:09:06.842Z,17.60
2023-05-02T07:11:33.719Z,18.15
2023-05-02T07:14:00.362Z,8.65
2023-05-02T07:16:27.790Z,9.38
2023-05-02T07:18:54.440Z,5.95
2023-05-02T07:21:21.096Z,5.55
2023-05-02T07:23:47.854Z,6.47
2023-05-02T07:26:14.510Z,8.63
2023-05-02T07:28:41.133Z,6.05
2023-05-02T07:31:07.878Z,8.63
2023-05-02T07:33:34.489Z,9.15
2023-05-02T07:36:02.043Z,5.70
2023-05-02T07:38:28.720Z,9.07
2023-05-02T07:40:58.938Z,7.90
2023-05-02T07:43:26.336Z,6.40
2023-05-02T07:45:53.239Z,9.43
2023-05-02T07:48:20.265Z,10.25
2023-05-02T07:50:46.924Z,12.65
2023-05-02T07:53:13.854Z,8.63
2023-05-02T07:55:40.900Z,9.25
2023-05-02T07:58:07.561Z,10.55
2023-05-02T08:00:34.267Z,14.40
2023-05-02T08:03:01.447Z,11.75
2023-05-02T08:05:28.213Z,12.38
2023-05-02T08:07:54.811Z,16.20
2023-05-02T08:10:21.525Z,29.63
2023-05-02T08:12:48.187Z,19.80
2023-05-02T08:15:14.846Z,16.40
2023-05-02T08:17:41.534Z,17.05
2023-05-02T08:20:08.693Z,15.65
2023-05-02T08:22:35.304Z,17.33
2023-05-02T08:25:02.056Z,18.58
2023-05-02T08:27:28.749Z,15.05
2023-05-02T08:29:57.314Z,13.60
2023-05-02T08:32:25.505Z,14.82
2023-05-02T08:34:56.164Z,13.60
2023-05-02T08:37:23.077Z,16.58
2023-05-02T08:39:49.681Z,14.05
2023-05-02T08:42:16.302Z,19.85
2023-05-02T08:44:42.948Z,23.95
2023-05-02T08:47:13.408Z,21.45
2023-05-02T08:49:40.822Z,26.50
2023-05-02T08:52:09.255Z,20.25
2023-05-02T08:54:38.168Z,18.23
2023-05-02T08:57:05.773Z,26.25
2023-05-02T08:59:32.390Z,31.02
2023-05-02T09:02:13.046Z,29.75
2023-05-02T09:04:42.829Z,26.25
2023-05-02T09:07:10.894Z,31.00
2023-05-02T09:09:37.700Z,25.80
2023-05-02T09:12:04.883Z,38.75
2023-05-02T09:14:32.646Z,31.33
2023-05-02T09:17:00.777Z,26.35
2023-05-02T09:19:28.124Z,27.13
2023-05-02T09:22:01.239Z,29.90
2023-05-02T09:24:28.387Z,27.80
2023-05-02T09:27:00.757Z,28.48
2023-05-02T09:29:30.530Z,20.38
2023-05-02T09:31:57.345Z,27.75
2023-05-02T09:34:24.351Z,22.48
2023-05-02T09:36:53.823Z,24.98
2023-05-02T09:39:25.542Z,19.75
2023-05-02T09:41:52.695Z,28.60
2023-05-02T09:44:21.761Z,29.27
2023-05-02T09:46:53.203Z,32.10
2023-05-02T09:49:38.414Z,29.58
2023-05-02T09:54:39.307Z,33.60
2023-05-02T09:57:07.097Z,34.20
2023-05-02T09:59:33.942Z,23.45
2023-05-02T10:02:03.149Z,30.27
2023-05-02T10:04:32.306Z,24.85
2023-05-02T10:06:59.315Z,30.95
2023-05-02T10:09:27.956Z,29.55
2023-05-02T10:11:56.273Z,27.02
2023-05-02T10:14:27.873Z,22.83
2023-05-02T10:17:21.392Z,28.05
2023-05-02T10:20:00.635Z,44.78
2023-05-02T10:22:27.886Z,28.25
2023-05-02T10:24:57.738Z,29.25
2023-05-02T10:27:25.308Z,28.23
2023-05-02T10:29:52.832Z,31.80
2023-05-02T10:32:21.672Z,33.50
2023-05-02T10:34:50.037Z,28.55
2023-05-02T10:37:18.383Z,37.65
2023-05-02T10:39:45.664Z,34.30
2023-05-02T10:42:14.162Z,39.10
2023-05-02T10:44:41.733Z,34.97
2023-05-02T10:47:27.509Z,36.05
2023-05-02T10:49:56.554Z,30.77
2023-05-02T10:52:30.607Z,33.22
2023-05-02T10:55:19.617Z,45.23
2023-05-02T10:57:58.750Z,29.27
2023-05-02T11:00:30.583Z,28.95
2023-05-02T11:02:57.410Z,31.30
2023-05-02T11:05:25.832Z,28.42
2023-05-02T11:08:19.457Z,33.88
2023-05-02T11:10:47.147Z,29.38
2023-05-02T11:13:13.818Z,32.85
2023-05-02T11:15:40.653Z,29.15
2023-05-02T11:18:09.278Z,32.72
2023-05-02T11:20:37.119Z,28.73
2023-05-02T11:23:16.258Z,29.30
2023-05-02T11:25:50.771Z,29.88
2023-05-02T11:28:36.716Z,28.35
2023-05-02T11:31:07.527Z,27.98
2023-05-02T11:33:34.459Z,28.17
2023-05-02T11:36:01.768Z,28.73
2023-05-02T11:38:37.446Z,29.75
2023-05-02T11:41:04.436Z,30.17
2023-05-02T11:43:32.382Z,30.63
2023-05-02T11:46:00.644Z,28.75
2023-05-02T11:48:27.842Z,28.80
2023-05-02T11:51:03.361Z,28.55
2023-05-02T11:53:31.272Z,28.95
2023-05-02T11:56:00.203Z,28.33
2023-05-02T11:58:34.802Z,30.58
2023-05-02T12:01:15.951Z,29.20
2023-05-02T12:03:43.132Z,29.35
2023-05-02T12:06:12.760Z,28.15
2023-05-02T12:08:41.090Z,27.67
2023-05-02T12:11:07.838Z,28.83
2023-05-02T12:13:35.038Z,28.98
2023-05-02T12:16:02.429Z,28.10
2023-05-02T12:18:29.365Z,30.13
2023-05-02T12:20:56.844Z,30.02
2023-05-02T12:23:26.346Z,29.38
2023-05-02T12:25:53.451Z,31.85
2023-05-02T12:28:20.695Z,30.13
2023-05-02T12:30:49.872Z,29.70
2023-05-02T12:33:17.374Z,30.90
2023-05-02T12:35:47.760Z,31.02
2023-05-02T12:38:23.392Z,31.52
2023-05-02T12:40:57.476Z,32.03
2023-05-02T12:43:24.153Z,32.33
2023-05-02T12:46:08.761Z,30.45
2023-05-02T12:48:35.439Z,29.60
2023-05-02T12:51:02.143Z,31.92
2023-05-02T12:53:39.913Z,30.13
2023-05-02T12:56:07.207Z,31.20
2023-05-02T12:58:49.748Z,30.75
2023-05-02T13:01:16.908Z,31.05
2023-05-02T13:03:44.139Z,33.40
2023-05-02T13:06:10.995Z,32.45
2023-05-02T13:08:37.802Z,31.02
2023-05-02T13:11:04.610Z,33.47
2023-05-02T13:13:32.501Z,33.47
2023-05-02T13:15:59.211Z,31.73
2023-05-02T13:18:27.815Z,31.88
2023-05-02T13:20:54.843Z,32.05
2023-05-02T13:23:21.576Z,32.08
2023-05-02T13:25:48.201Z,35.38
2023-05-02T13:28:15.111Z,34.75
2023-05-02T13:30:41.906Z,33.90
2023-05-02T13:33:08.674Z,34.13
2023-05-02T13:35:35.611Z,35.88
2023-05-02T13:38:02.799Z,36.70
2023-05-02T13:40:29.761Z,36.50
2023-05-02T13:42:56.365Z,35.67
2023-05-02T13:45:23.078Z,36.65
2023-05-02T13:47:49.746Z,37.00
2023-05-02T13:50:16.530Z,37.83
2023-05-02T13:52:43.165Z,34.38
2023-05-02T13:55:09.904Z,32.70
2023-05-02T13:57:36.549Z,34.65
2023-05-02T14:00:04.369Z,33.35
2023-05-02T14:02:31.946Z,30.50
2023-05-02T14:04:58.681Z,31.73
2023-05-02T14:07:25.254Z,29.95
2023-05-02T14:09:51.889Z,29.25
2023-05-02T14:12:18.536Z,31.52
2023-05-02T14:14:45.845Z,29.13
2023-05-02T14:17:12.729Z,28.77
2023-05-02T14:19:39.417Z,35.50
2023-05-02T14:22:07.232Z,34.67
2023-05-02T14:24:33.989Z,33.80
2023-05-02T14:27:01.326Z,32.95
2023-05-02T14:29:27.982Z,33.67
2023-05-02T14:31:54.660Z,32.85
2023-05-02T14:34:21.861Z,33.28
2023-05-02T14:36:48.872Z,33.78
2023-05-02T14:39:15.630Z,32.03
2023-05-02T14:41:42.252Z,34.67
2023-05-02T14:44:08.867Z,34.72
2023-05-02T14:46:35.670Z,32.88
2023-05-02T14:49:02.354Z,32.35
2023-05-02T14:51:28.943Z,34.70
2023-05-02T14:53:55.877Z,37.17
2023-05-02T14:56:23.263Z,32.65
2023-05-02T14:58:50.031Z,32.45
2023-05-02T15:01:21.136Z,35.15
2023-05-02T15:04:05.217Z,34.92
2023-05-02T15:06:33.614Z,32.85
2023-05-02T15:09:01.581Z,33.53
2023-05-02T15:11:28.269Z,34.33
2023-05-02T15:13:56.717Z,33.28
2023-05-02T15:16:26.825Z,34.35
2023-05-02T15:18:53.868Z,31.48
2023-05-02T15:21:20.546Z,33.15
2023-05-02T15:23:47.407Z,34.42
2023-05-02T15:26:14.540Z,33.55
2023-05-02T15:28:41.354Z,37.17
2023-05-02T15:31:07.960Z,38.63
2023-05-02T15:33:35.316Z,35.20
2023-05-02T15:36:02.347Z,38.22
2023-05-02T15:38:28.968Z,34.75
2023-05-02T15:41:00.198Z,36.58
2023-05-02T15:43:27.441Z,38.97
2023-05-02T15:45:55.476Z,38.83
2023-05-02T15:48:23.041Z,36.22
2023-05-02T15:50:49.761Z,34.35
2023-05-02T15:53:17.235Z,33.78
2023-05-02T15:55:45.813Z,33.53
2023-05-02T15:58:13.054Z,34.83
2023-05-02T16:00:39.900Z,34.65
2023-05-02T16:03:06.648Z,35.25
2023-05-02T16:05:33.866Z,36.85
2023-05-02T16:08:00.802Z,36.30
2023-05-02T16:10:27.609Z,36.70
2023-05-02T16:12:54.564Z,36.97
2023-05-02T16:15:21.505Z,35.70
2023-05-02T16:17:49.196Z,35.05
2023-05-02T16:20:17.177Z,35.60
2023-05-02T16:22:48.395Z,36.13
2023-05-02T16:25:16.551Z,37.13
2023-05-02T16:27:43.584Z,36.92
2023-05-02T16:30:10.852Z,37.83
2023-05-02T16:32:37.865Z,36.13
2023-05-02T16:35:07.239Z,36.55
2023-05-02T16:37:34.812Z,38.40
2023-05-02T16:40:02.396Z,37.55
2023-05-02T16:42:29.701Z,35.47
2023-05-02T16:44:57.350Z,37.10
2023-05-02T16:47:24.236Z,39.42
2023-05-02T16:50:01.371Z,36.28
2023-05-02T16:52:28.988Z,35.70
2023-05-02T16:54:55.718Z,37.10
2023-05-02T16:57:23.122Z,36.58
2023-05-02T16:59:51.830Z,39.53
2023-05-02T17:02:22.627Z,41.40
2023-05-02T17:04:50.002Z,40.65
2023-05-02T17:07:17.410Z,41.58
2023-05-02T17:09:44.508Z,37.05
2023-05-02T17:12:12.073Z,35.50
2023-05-02T17:14:40.996Z,38.22
2023-05-02T17:17:07.779Z,38.63
2023-05-02T17:19:34.794Z,39.50
2023-05-02T17:22:02.058Z,36.08
2023-05-02T17:24:29.875Z,38.58
2023-05-02T17:26:56.884Z,38.33
2023-05-02T17:29:24.000Z,36.33
2023-05-02T17:31:51.018Z,34.90
2023-05-02T17:34:17.629Z,36.17
2023-05-02T17:36:44.593Z,35.20
2023-05-02T17:39:12.926Z,34.38
2023-05-02T17:41:39.558Z,39.67
2023-05-02T17:44:06.624Z,35.00
2023-05-02T17:46:33.385Z,31.30
2023-05-02T17:49:00.753Z,33.75
2023-05-02T17:51:27.696Z,33.63
2023-05-02T17:53:54.303Z,33.55
2023-05-02T17:56:20.921Z,34.78
2023-05-02T17:58:47.894Z,33.35
2023-05-02T18:01:14.666Z,35.05
2023-05-02T18:03:41.614Z,33.50
2023-05-02T18:06:08.832Z,33.47
2023-05-02T18:08:35.689Z,33.97
2023-05-02T18:11:03.379Z,33.38
2023-05-02T18:13:30.586Z,33.10
2023-05-02T18:15:58.271Z,34.35
2023-05-02T18:18:25.228Z,33.95
2023-05-02T18:20:51.933Z,35.92
2023-05-02T18:23:18.636Z,35.60
2023-05-02T18:25:45.401Z,33.17
2023-05-02T18:28:13.181Z,33.45
2023-05-02T18:30:40.224Z,31.15
2023-05-02T18:33:07.947Z,27.33
2023-05-02T18:35:35.519Z,28.02
2023-05-02T18:38:02.354Z,29.08
2023-05-02T18:40:29.055Z,27.95
2023-05-02T18:42:55.843Z,28.40
2023-05-02T18:45:22.453Z,29.27
2023-05-02T18:47:50.988Z,28.63
2023-05-02T18:50:18.149Z,28.13
2023-05-02T18:52:44.766Z,28.33
2023-05-02T18:55:11.427Z,28.05
2023-05-02T18:57:38.090Z,29.17
2023-05-02T19:00:09.078Z,29.75
2023-05-02T19:02:36.131Z,29.50
2023-05-02T19:05:07.537Z,29.40
2023-05-02T19:07:35.056Z,29.75
2023-05-02T19:10:03.164Z,28.48
2023-05-02T19:12:30.099Z,31.83
2023-05-02T19:14:56.771Z,29.48
2023-05-02T19:17:26.757Z,28.42
2023-05-02T19:19:54.065Z,30.15
2023-05-02T19:22:23.174Z,29.50
2023-05-02T19:24:50.823Z,29.75
2023-05-02T19:27:17.463Z,29.35
2023-05-02T19:29:44.188Z,29.40
2023-05-02T19:32:10.981Z,28.67
2023-05-02T19:34:38.311Z,28.33
2023-05-02T19:37:05.043Z,28.65
2023-05-02T19:39:31.871Z,29.45
2023-05-02T19:41:58.973Z,28.10
2023-05-02T19:44:26.019Z,29.33
2023-05-02T19:46:52.680Z,28.52
2023-05-02T19:49:19.261Z,28.13
2023-05-02T19:51:46.130Z,27.48
2023-05-02T19:54:12.715Z,27.88
2023-05-02T19:56:40.000Z,28.30
2023-05-02T19:59:06.669Z,27.70
2023-05-02T20:01:33.645Z,28.20
2023-05-02T20:04:00.958Z,28.35
2023-05-02T20:06:28.286Z,26.88
2023-05-02T20:08:55.052Z,26.98
2023-05-02T20:11:21.754Z,27.75
2023-05-02T20:13:48.392Z,28.42
2023-05-02T20:16:15.147Z,28.65
2023-05-02T20:18:41.782Z,27.63
2023-05-02T20:21:08.491Z,27.42
2023-05-02T20:23:35.198Z,31.40
2023-05-02T20:26:01.980Z,31.00
2023-05-02T20:28:28.647Z,29.08
2023-05-02T20:30:55.318Z,31.67
2023-05-02T20:33:27.615Z,28.75
2023-05-02T20:36:00.612Z,28.65
2023-05-02T20:38:27.904Z,27.40
2023-05-02T20:40:54.609Z,28.27
2023-05-02T20:43:22.715Z,27.77
2023-05-02T20:45:49.571Z,30.40
2023-05-02T20:48:18.072Z,27.73
2023-05-02T20:50:54.429Z,27.95
2023-05-02T20:53:23.732Z,27.77
2023-05-02T20:55:50.834Z,27.73
2023-05-02T20:58:17.539Z,27.73
2023-05-02T21:00:45.715Z,28.35
2023-05-02T21:03:12.405Z,28.02
2023-05-02T21:05:39.045Z,27.70
2023-05-02T21:08:05.888Z,28.85
2023-05-02T21:10:32.956Z,27.65
2023-05-02T21:12:59.614Z,28.40
2023-05-02T21:15:26.601Z,28.13
2023-05-02T21:18:03.614Z,28.52
2023-05-02T21:20:30.517Z,27.85
2023-05-02T21:22:57.175Z,27.92
2023-05-02T21:25:24.031Z,28.08
2023-05-02T21:27:51.423Z,29.48
2023-05-02T21:30:18.340Z,27.75
2023-05-02T21:32:46.031Z,38.40
2023-05-02T21:35:12.710Z,39.58
2023-05-02T21:37:39.404Z,44.67
2023-05-02T21:40:08.386Z,42.25
2023-05-02T21:42:35.152Z,41.13
2023-05-02T21:45:01.967Z,42.38
2023-05-02T21:47:28.650Z,41.55
2023-05-02T21:49:56.957Z,40.13
2023-05-02T21:52:23.601Z,30.40
2023-05-02T21:54:52.315Z,30.20
2023-05-02T21:57:19.168Z,29.83
2023-05-02T21:59:46.112Z,31.33
2023-05-02T22:02:12.795Z,30.73
2023-05-02T22:04:40.336Z,32.85
2023-05-02T22:07:07.296Z,36.63
2023-05-02T22:09:33.961Z,29.23
2023-05-02T22:12:00.957Z,27.42
2023-05-02T22:14:37.494Z,26.55
2023-05-02T22:17:11.144Z,27.80
2023-05-02T22:19:39.116Z,27.08
2023-05-02T22:22:06.423Z,27.95
2023-05-02T22:24:33.392Z,27.67
2023-05-02T22:26:59.983Z,29.23
2023-05-02T22:29:26.669Z,29.20
2023-05-02T22:31:53.310Z,28.95
2023-05-02T22:34:20.122Z,29.98
2023-05-02T22:36:46.869Z,29.88
2023-05-02T22:39:15.362Z,30.75
2023-05-02T22:41:42.639Z,30.42
2023-05-02T22:44:09.339Z,29.83
2023-05-02T22:46:38.242Z,30.20
2023-05-02T22:49:09.404Z,31.38
2023-05-02T22:51:40.081Z,33.83
2023-05-02T22:54:07.844Z,31.27
2023-05-02T22:56:34.776Z,26.58
2023-05-02T22:59:01.706Z,28.75
2023-05-02T23:01:28.447Z,26.48
2023-05-02T23:03:55.214Z,27.40
2023-05-02T23:06:21.968Z,27.05
2023-05-02T23:08:49.001Z,24.08
2023-05-02T23:11:15.882Z,22.30
2023-05-02T23:13:42.481Z,22.15
2023-05-02T23:16:09.133Z,21.80
2023-05-02T23:18:35.916Z,21.40
2023-05-02T23:21:04.258Z,22.38
2023-05-02T23:23:31.071Z,21.02
2023-05-02T23:25:57.987Z,21.45
2023-05-02T23:28:25.555Z,20.27
2023-05-02T23:30:53.488Z,19.40
2023-05-02T23:33:20.328Z,19.83
2023-05-02T23:35:47.523Z,21.73
2023-05-02T23:38:14.214Z,19.83
2023-05-02T23:40:40.910Z,18.63
2023-05-02T23:43:08.626Z,19.33
2023-05-02T23:45:35.332Z,19.88
2023-05-02T23:48:02.474Z,21.80
2023-05-02T23:50:29.137Z,19.55
2023-05-02T23:52:55.741Z,20.13
2023-05-02T23:55:22.423Z,21.40
2023-05-02T23:57:49.043Z,22.00
